createdAt,value
2023-04-16T00:01:16.083Z,6.00
2023-04-16T00:03:42.725Z,6.32
2023-04-16T00:06:10.915Z,6.47
2023-04-16T00:08:37.440Z,7.05
2023-04-16T00:11:03.974Z,7.22
2023-04-16T00:13:30.560Z,6.07
2023-04-16T00:15:57.175Z,6.88
2023-04-16T00:18:23.767Z,7.40
2023-04-16T00:20:50.868Z,6.38
2023-04-16T00:23:17.519Z,6.80
2023-04-16T00:25:44.062Z,6.93
2023-04-16T00:28:11.164Z,7.78
2023-04-16T00:30:37.866Z,7.75
2023-04-16T00:33:04.880Z,9.98
2023-04-16T00:35:31.369Z,8.55
2023-04-16T00:37:57.910Z,7.70
2023-04-16T00:40:27.113Z,7.75
2023-04-16T00:42:53.587Z,8.20
2023-04-16T00:45:20.245Z,9.43
2023-04-16T00:47:47.064Z,8.48
2023-04-16T00:50:14.286Z,10.07
2023-04-16T00:52:40.924Z,7.72
2023-04-16T00:55:07.784Z,10.98
2023-04-16T00:57:34.305Z,8.20
2023-04-16T01:00:00.848Z,9.52
2023-04-16T01:02:27.543Z,9.88
2023-04-16T01:04:55.150Z,11.00
2023-04-16T01:07:21.633Z,9.95
2023-04-16T01:09:48.174Z,9.00
2023-04-16T01:12:14.755Z,9.73
2023-04-16T01:14:41.324Z,9.57
2023-04-16T01:17:07.842Z,8.57
2023-04-16T01:19:38.514Z,9.02
2023-04-16T01:22:05.245Z,8.55
2023-04-16T01:24:31.910Z,10.70
2023-04-16T01:26:59.454Z,9.85
2023-04-16T01:29:26.616Z,8.43
2023-04-16T01:31:53.253Z,9.65
2023-04-16T01:34:19.957Z,8.90
2023-04-16T01:36:46.474Z,9.32
2023-04-16T01:39:15.747Z,9.10
2023-04-16T01:41:42.771Z,9.32
2023-04-16T01:44:09.357Z,10.73
2023-04-16T01:46:35.901Z,10.35
2023-04-16T01:49:02.813Z,9.30
2023-04-16T01:51:29.297Z,8.32
2023-04-16T01:53:56.114Z,10.10
2023-04-16T01:56:22.656Z,9.32
2023-04-16T01:58:49.190Z,8.52
2023-04-16T02:01:16.224Z,9.25
2023-04-16T02:03:43.103Z,9.75
2023-04-16T02:06:09.760Z,10.82
2023-04-16T02:08:36.424Z,8.52
2023-04-16T02:11:03.010Z,9.85
2023-04-16T02:13:29.622Z,10.30
2023-04-16T02:15:56.173Z,11.05
2023-04-16T02:18:22.721Z,8.82
2023-04-16T02:20:51.962Z,9.50
2023-04-16T02:23:18.474Z,9.75
2023-04-16T02:25:46.017Z,9.98
2023-04-16T02:28:13.489Z,8.98
2023-04-16T02:30:40.660Z,9.77
2023-04-16T02:33:08.239Z,7.28
2023-04-16T02:35:34.979Z,10.00
2023-04-16T02:38:01.968Z,9.30
2023-04-16T02:40:29.482Z,8.68
2023-04-16T02:42:56.169Z,8.55
2023-04-16T02:45:22.818Z,8.43
2023-04-16T02:47:49.879Z,10.55
2023-04-16T02:50:16.751Z,7.57
2023-04-16T02:52:43.334Z,8.63
2023-04-16T02:55:10.490Z,8.63
2023-04-16T02:57:36.996Z,9.18
2023-04-16T03:00:05.196Z,9.80
2023-04-16T03:02:31.936Z,8.55
2023-04-16T03:04:58.648Z,8.55
2023-04-16T03:07:25.279Z,8.52
2023-04-16T03:09:51.928Z,9.15
2023-04-16T03:12:18.413Z,8.82
2023-04-16T03:14:44.888Z,8.27
2023-04-16T03:17:11.669Z,8.95
2023-04-16T03:19:38.153Z,9.07
2023-04-16T03:22:04.816Z,9.98
2023-04-16T03:24:31.396Z,10.20
2023-04-16T03:26:58.377Z,8.88
2023-04-16T03:29:25.161Z,8.93
2023-04-16T03:31:51.683Z,9.15
2023-04-16T03:34:18.216Z,10.07
2023-04-16T03:36:44.739Z,9.02
2023-04-16T03:39:11.522Z,9.05
2023-04-16T03:41:38.169Z,8.38
2023-04-16T03:44:04.972Z,9.90
2023-04-16T03:46:31.459Z,8.90
2023-04-16T03:48:57.954Z,9.63
2023-04-16T03:51:25.021Z,10.60
2023-04-16T03:53:51.661Z,9.95
2023-04-16T03:56:18.361Z,11.60
2023-04-16T03:58:44.878Z,9.30
2023-04-16T04:01:11.352Z,8.68
2023-04-16T04:03:38.146Z,9.00
2023-04-16T04:06:08.504Z,9.45
2023-04-16T04:08:35.092Z,9.73
2023-04-16T04:11:01.572Z,9.73
2023-04-16T04:13:28.057Z,9.40
2023-04-16T04:15:54.761Z,9.77
2023-04-16T04:18:21.320Z,9.88
2023-04-16T04:20:47.810Z,9.07
2023-04-16T04:23:14.329Z,8.75
2023-04-16T04:25:40.817Z,8.52
2023-04-16T04:28:07.313Z,9.23
2023-04-16T04:30:35.863Z,10.23
2023-04-16T04:33:02.463Z,9.82
2023-04-16T04:35:29.044Z,9.63
2023-04-16T04:37:55.785Z,9.43
2023-04-16T04:40:22.378Z,9.60
2023-04-16T04:42:49.064Z,8.32
2023-04-16T04:45:16.117Z,9.48
2023-04-16T04:47:42.757Z,8.80
2023-04-16T04:50:09.578Z,8.68
2023-04-16T04:52:36.384Z,8.60
2023-04-16T04:55:02.929Z,8.18
2023-04-16T04:57:29.451Z,8.15
2023-04-16T04:59:56.016Z,8.07
2023-04-16T05:02:22.637Z,8.25
2023-04-16T05:04:49.195Z,9.68
2023-04-16T05:07:16.029Z,7.47
2023-04-16T05:09:42.569Z,8.35
2023-04-16T05:12:09.228Z,6.95
2023-04-16T05:14:36.392Z,10.18
2023-04-16T05:17:03.038Z,7.88
2023-04-16T05:19:29.611Z,8.25
2023-04-16T05:21:56.402Z,8.00
2023-04-16T05:24:23.298Z,9.48
2023-04-16T05:26:49.843Z,8.27
2023-04-16T05:29:16.382Z,8.05
2023-04-16T05:31:43.081Z,8.23
2023-04-16T05:34:09.567Z,8.15
2023-04-16T05:36:36.051Z,9.80
2023-04-16T05:39:02.964Z,9.00
2023-04-16T05:41:29.469Z,7.93
2023-04-16T05:43:56.339Z,8.38
2023-04-16T05:46:22.975Z,7.43
2023-04-16T05:48:49.535Z,9.02
2023-04-16T05:51:16.058Z,7.68
2023-04-16T05:53:42.772Z,9.13
2023-04-16T05:56:09.426Z,8.68
2023-04-16T05:58:35.932Z,8.20
2023-04-16T06:01:02.423Z,9.60
2023-04-16T06:03:29.018Z,8.68
2023-04-16T06:05:55.668Z,10.13
2023-04-16T06:08:22.383Z,11.63
2023-04-16T06:10:49.173Z,11.35
2023-04-16T06:13:15.789Z,12.20
2023-04-16T06:15:42.370Z,9.82
2023-04-16T06:18:09.071Z,8.98
2023-04-16T06:20:35.793Z,9.48
2023-04-16T06:23:02.278Z,10.90
2023-04-16T06:25:28.791Z,8.88
2023-04-16T06:27:55.397Z,8.38
2023-04-16T06:30:21.885Z,9.35
2023-04-16T06:32:49.124Z,9.57
2023-04-16T06:35:16.093Z,10.45
2023-04-16T06:37:42.629Z,10.27
2023-04-16T06:40:09.393Z,10.10
2023-04-16T06:42:36.197Z,7.80
2023-04-16T06:45:02.772Z,7.93
2023-04-16T06:47:29.367Z,7.78
2023-04-16T06:49:55.915Z,8.27
2023-04-16T06:52:22.434Z,7.15
2023-04-16T06:54:48.952Z,7.85
2023-04-16T06:57:16.295Z,7.57
2023-04-16T06:59:42.943Z,6.50
2023-04-16T07:02:10.556Z,7.53
2023-04-16T07:04:37.385Z,6.93
2023-04-16T07:07:03.973Z,5.15
2023-04-16T07:09:30.610Z,3.90
2023-04-16T07:11:57.137Z,4.47
2023-04-16T07:14:23.709Z,4.65
2023-04-16T07:16:50.321Z,4.00
2023-04-16T07:19:16.882Z,4.65
2023-04-16T07:21:43.859Z,3.17
2023-04-16T07:24:11.562Z,3.40
2023-04-16T07:26:38.088Z,3.33
2023-04-16T07:29:04.633Z,4.10
2023-04-16T07:31:31.222Z,3.22
2023-04-16T07:33:58.179Z,3.40
2023-04-16T07:36:24.804Z,2.92
2023-04-16T07:38:51.341Z,2.80
2023-04-16T07:41:17.900Z,2.88
2023-04-16T07:43:44.391Z,2.47
2023-04-16T07:46:11.089Z,3.08
2023-04-16T07:48:37.649Z,1.73
2023-04-16T07:51:04.144Z,1.85
2023-04-16T07:53:30.859Z,1.52
2023-04-16T07:55:57.410Z,1.60
2023-04-16T07:58:23.941Z,1.60
2023-04-16T08:00:51.414Z,1.77
2023-04-16T08:03:18.639Z,1.48
2023-04-16T08:05:45.352Z,0.90
2023-04-16T08:08:11.899Z,1.00
2023-04-16T08:10:38.980Z,0.98
2023-04-16T08:13:05.725Z,1.00
2023-04-16T08:15:32.540Z,0.98
2023-04-16T08:17:59.759Z,0.80
2023-04-16T08:20:26.455Z,1.00
2023-04-16T08:22:53.651Z,0.68
2023-04-16T08:25:20.761Z,0.82
2023-04-16T08:27:47.285Z,1.95
2023-04-16T08:30:13.792Z,0.90
2023-04-16T08:32:40.400Z,0.82
2023-04-16T08:35:07.048Z,0.90
2023-04-16T08:37:33.563Z,1.13
2023-04-16T08:40:01.128Z,1.10
2023-04-16T08:42:43.759Z,0.73
2023-04-16T08:45:10.625Z,1.48
2023-04-16T08:47:37.535Z,0.80
2023-04-16T08:50:05.356Z,1.33
2023-04-16T08:52:32.512Z,0.80
2023-04-16T08:55:03.882Z,1.15
2023-04-16T08:57:34.857Z,1.13
2023-04-16T09:00:01.511Z,1.42
2023-04-16T09:02:28.691Z,1.40
2023-04-16T09:04:56.569Z,1.60
2023-04-16T09:07:24.317Z,1.52
2023-04-16T09:09:52.416Z,1.30
2023-04-16T09:12:19.354Z,1.00
2023-04-16T09:14:49.077Z,1.10
2023-04-16T09:17:16.572Z,1.38
2023-04-16T09:19:43.054Z,1.40
2023-04-16T09:22:09.564Z,1.13
2023-04-16T09:24:38.578Z,1.40
2023-04-16T09:27:05.407Z,1.17
2023-04-16T09:29:36.276Z,1.00
2023-04-16T09:32:06.994Z,0.90
2023-04-16T09:34:34.012Z,1.30
2023-04-16T09:37:16.881Z,1.10
2023-04-16T09:39:43.943Z,1.55
2023-04-16T09:42:10.780Z,1.30
2023-04-16T09:44:37.885Z,0.95
2023-04-16T09:47:08.589Z,1.02
2023-04-16T09:49:38.762Z,1.10
2023-04-16T09:52:09.202Z,1.35
2023-04-16T09:54:35.703Z,1.38
2023-04-16T09:57:02.243Z,1.20
2023-04-16T09:59:31.276Z,1.25
2023-04-16T10:02:15.853Z,1.08
2023-04-16T10:04:50.462Z,1.13
2023-04-16T10:07:17.176Z,1.10
2023-04-16T10:09:43.990Z,1.02
2023-04-16T10:12:12.853Z,1.38
2023-04-16T10:14:39.888Z,0.63
2023-04-16T10:17:06.619Z,0.77
2023-04-16T10:19:33.875Z,0.82
2023-04-16T10:22:00.686Z,0.90
2023-04-16T10:24:28.202Z,0.85
2023-04-16T10:26:55.214Z,1.52
2023-04-16T10:29:22.147Z,1.15
2023-04-16T10:31:49.611Z,1.13
2023-04-16T10:34:16.804Z,0.85
2023-04-16T10:36:43.478Z,0.82
2023-04-16T10:39:12.184Z,0.80
2023-04-16T10:41:40.115Z,0.75
2023-04-16T10:44:10.001Z,0.60
2023-04-16T10:46:39.158Z,1.35
2023-04-16T10:49:15.257Z,1.25
2023-04-16T10:51:42.146Z,1.00
2023-04-16T10:54:08.624Z,0.80
2023-04-16T10:56:36.115Z,1.88
2023-04-16T10:59:07.091Z,0.93
2023-04-16T11:01:37.901Z,0.90
2023-04-16T11:04:19.831Z,1.23
2023-04-16T11:07:04.805Z,1.17
2023-04-16T11:09:50.169Z,1.13
2023-04-16T11:12:18.651Z,1.00
2023-04-16T11:14:52.699Z,1.15
2023-04-16T11:19:45.809Z,0.95
2023-04-16T11:22:13.831Z,1.25
2023-04-16T11:24:41.084Z,1.63
2023-04-16T11:27:08.022Z,1.00
2023-04-16T11:29:34.624Z,1.17
2023-04-16T11:32:01.116Z,1.05
2023-04-16T11:34:27.694Z,1.50
2023-04-16T11:36:54.216Z,1.30
2023-04-16T11:39:20.760Z,1.52
2023-04-16T11:41:47.980Z,1.30
2023-04-16T11:44:24.862Z,1.88
2023-04-16T11:46:52.028Z,1.30
2023-04-16T11:49:27.171Z,1.30
2023-04-16T11:51:53.720Z,3.72
2023-04-16T11:54:20.844Z,1.50
2023-04-16T11:56:48.120Z,4.05
2023-04-16T11:59:18.927Z,2.10
2023-04-16T12:01:47.106Z,1.42
2023-04-16T12:04:14.836Z,1.27
2023-04-16T12:06:41.741Z,1.20
2023-04-16T12:09:27.296Z,1.20
2023-04-16T12:11:54.156Z,1.10
2023-04-16T12:14:20.709Z,1.45
2023-04-16T12:16:47.791Z,0.90
2023-04-16T12:19:14.671Z,0.93
2023-04-16T12:21:45.300Z,1.00
2023-04-16T12:24:16.225Z,1.27
2023-04-16T12:26:43.881Z,0.90
2023-04-16T12:29:17.059Z,1.20
2023-04-16T12:31:44.248Z,0.90
2023-04-16T12:34:10.880Z,1.10
2023-04-16T12:36:37.661Z,0.90
2023-04-16T12:39:05.181Z,0.80
2023-04-16T12:41:31.734Z,0.90
2023-04-16T12:44:09.250Z,0.98
2023-04-16T12:46:37.465Z,1.02
2023-04-16T12:49:04.053Z,1.10
2023-04-16T12:51:31.059Z,1.20
2023-04-16T12:53:57.621Z,1.63
2023-04-16T12:56:24.183Z,1.70
2023-04-16T12:58:52.028Z,1.10
2023-04-16T13:01:21.797Z,1.60
2023-04-16T13:03:48.794Z,1.45
2023-04-16T13:06:16.126Z,2.33
2023-04-16T13:08:45.977Z,1.52
2023-04-16T13:11:12.868Z,1.52
2023-04-16T13:13:39.478Z,1.90
2023-04-16T13:16:08.612Z,1.45
2023-04-16T13:18:36.468Z,1.85
2023-04-16T13:21:03.432Z,1.67
2023-04-16T13:23:29.990Z,1.50
2023-04-16T13:25:56.503Z,1.15
2023-04-16T13:28:22.990Z,1.58
2023-04-16T13:30:49.604Z,1.13
2023-04-16T13:33:16.461Z,1.23
2023-04-16T13:35:43.059Z,1.60
2023-04-16T13:38:09.554Z,1.90
2023-04-16T13:40:36.083Z,1.30
2023-04-16T13:43:02.617Z,1.33
2023-04-16T13:45:29.092Z,1.33
2023-04-16T13:47:56.442Z,2.13
2023-04-16T13:50:23.076Z,1.75
2023-04-16T13:52:49.557Z,1.67
2023-04-16T13:55:19.310Z,1.10
2023-04-16T13:57:47.293Z,4.53
2023-04-16T14:00:15.319Z,1.73
2023-04-16T14:02:42.836Z,2.10
2023-04-16T14:05:09.697Z,2.35
2023-04-16T14:07:37.283Z,1.75
2023-04-16T14:10:03.990Z,2.35
2023-04-16T14:12:31.653Z,2.28
2023-04-16T14:14:58.392Z,1.60
2023-04-16T14:17:24.981Z,1.58
2023-04-16T14:19:51.669Z,2.15
2023-04-16T14:22:18.413Z,1.50
2023-04-16T14:24:44.933Z,1.80
2023-04-16T14:27:12.260Z,2.40
2023-04-16T14:29:38.813Z,1.67
2023-04-16T14:32:05.660Z,1.58
2023-04-16T14:34:32.210Z,1.77
2023-04-16T14:36:58.768Z,1.40
2023-04-16T14:39:25.298Z,1.45
2023-04-16T14:41:51.809Z,1.35
2023-04-16T14:44:18.306Z,3.10
2023-04-16T14:46:44.836Z,2.75
2023-04-16T14:49:12.456Z,2.90
2023-04-16T14:51:39.147Z,1.92
2023-04-16T14:54:05.728Z,1.60
2023-04-16T14:56:32.246Z,1.65
2023-04-16T14:58:58.784Z,1.95
2023-04-16T15:01:25.275Z,2.30
2023-04-16T15:03:51.873Z,3.30
2023-04-16T15:06:19.046Z,2.67
2023-04-16T15:08:45.956Z,2.42
2023-04-16T15:11:12.557Z,2.22
2023-04-16T15:13:39.147Z,2.85
2023-04-16T15:16:05.766Z,1.85
2023-04-16T15:18:32.735Z,3.00
2023-04-16T15:20:59.290Z,2.60
2023-04-16T15:23:25.822Z,2.63
2023-04-16T15:25:52.402Z,2.47
2023-04-16T15:28:18.918Z,2.95
2023-04-16T15:30:45.611Z,2.35
2023-04-16T15:33:12.258Z,2.50
2023-04-16T15:35:41.236Z,2.75
2023-04-16T15:38:08.347Z,2.75
2023-04-16T15:40:35.631Z,3.40
2023-04-16T15:43:02.165Z,3.30
2023-04-16T15:45:29.065Z,2.10
2023-04-16T15:47:56.080Z,2.47
2023-04-16T15:50:22.818Z,2.53
2023-04-16T15:52:49.488Z,2.30
2023-04-16T15:55:16.749Z,2.20
2023-04-16T15:57:43.285Z,2.60
2023-04-16T16:00:13.968Z,2.40
2023-04-16T16:02:41.868Z,2.45
2023-04-16T16:05:12.239Z,6.35
2023-04-16T16:07:38.774Z,4.22
2023-04-16T16:10:06.195Z,3.72
2023-04-16T16:12:33.178Z,3.40
2023-04-16T16:14:59.850Z,3.67
2023-04-16T16:17:26.381Z,3.75
2023-04-16T16:19:52.965Z,3.88
2023-04-16T16:22:20.734Z,4.05
2023-04-16T16:24:49.130Z,4.90
2023-04-16T16:27:16.107Z,6.82
2023-04-16T16:29:42.656Z,4.90
2023-04-16T16:32:09.379Z,4.75
2023-04-16T16:34:35.895Z,5.03
2023-04-16T16:37:02.385Z,5.97
2023-04-16T16:39:28.972Z,4.85
2023-04-16T16:41:56.935Z,5.82
2023-04-16T16:44:23.593Z,6.22
2023-04-16T16:46:50.329Z,6.53
2023-04-16T16:49:17.335Z,6.65
2023-04-16T16:51:47.221Z,7.65
2023-04-16T16:54:13.863Z,9.00
2023-04-16T16:56:40.585Z,9.43
2023-04-16T16:59:07.801Z,10.20
2023-04-16T17:01:34.637Z,9.73
2023-04-16T17:04:01.270Z,10.82
2023-04-16T17:06:27.866Z,12.27
2023-04-16T17:08:54.425Z,12.95
2023-04-16T17:11:21.047Z,10.98
2023-04-16T17:13:47.681Z,12.50
2023-04-16T17:16:15.597Z,12.25
2023-04-16T17:18:42.209Z,11.63
2023-04-16T17:21:08.720Z,12.60
2023-04-16T17:23:35.226Z,12.43
2023-04-16T17:26:01.949Z,13.30
2023-04-16T17:28:28.681Z,12.07
2023-04-16T17:30:57.056Z,12.73
2023-04-16T17:33:23.599Z,11.55
2023-04-16T17:35:50.108Z,11.85
2023-04-16T17:38:16.684Z,11.30
2023-04-16T17:40:43.222Z,12.35
2023-04-16T17:43:09.700Z,14.35
2023-04-16T17:45:36.423Z,13.38
2023-04-16T17:48:03.071Z,13.82
2023-04-16T17:50:29.619Z,13.40
2023-04-16T17:52:58.155Z,10.30
2023-04-16T17:55:24.741Z,11.45
2023-04-16T17:57:51.320Z,12.38
2023-04-16T18:00:18.062Z,10.75
2023-04-16T18:02:45.478Z,11.75
2023-04-16T18:05:12.158Z,11.18
2023-04-16T18:07:39.159Z,10.27
2023-04-16T18:10:06.023Z,9.85
2023-04-16T18:12:32.832Z,10.45
2023-04-16T18:14:59.304Z,11.95
2023-04-16T18:17:25.955Z,11.02
2023-04-16T18:19:52.552Z,10.30
2023-04-16T18:22:19.079Z,11.48
2023-04-16T18:24:45.648Z,12.25
2023-04-16T18:27:12.617Z,11.80
2023-04-16T18:29:40.500Z,11.68
2023-04-16T18:32:09.910Z,40.13
2023-04-16T18:34:38.367Z,30.02
2023-04-16T18:37:04.910Z,23.33
2023-04-16T18:39:32.802Z,21.48
2023-04-16T18:41:59.387Z,59.70
2023-04-16T18:44:26.470Z,40.95
2023-04-16T18:46:53.037Z,19.75
2023-04-16T18:49:19.577Z,16.40
2023-04-16T18:51:46.095Z,15.38
2023-04-16T18:54:12.569Z,14.15
2023-04-16T18:56:39.209Z,13.05
2023-04-16T18:59:05.739Z,14.00
2023-04-16T19:01:32.236Z,12.65
2023-04-16T19:03:58.801Z,13.15
2023-04-16T19:06:27.090Z,12.48
2023-04-16T19:08:53.574Z,13.32
2023-04-16T19:11:20.095Z,12.73
2023-04-16T19:13:46.582Z,11.60
2023-04-16T19:16:13.126Z,12.38
2023-04-16T19:18:39.689Z,11.02
2023-04-16T19:21:07.236Z,12.23
2023-04-16T19:23:35.161Z,10.90
2023-04-16T19:26:02.057Z,13.25
2023-04-16T19:28:28.816Z,20.77
2023-04-16T19:30:56.065Z,13.38
2023-04-16T19:33:22.688Z,25.35
2023-04-16T19:35:49.202Z,32.60
2023-04-16T19:38:15.681Z,26.45
2023-04-16T19:40:46.759Z,15.05
2023-04-16T19:43:13.412Z,12.13
2023-04-16T19:45:46.936Z,14.63
2023-04-16T19:48:13.733Z,14.38
2023-04-16T19:50:41.083Z,12.45
2023-04-16T19:53:08.287Z,14.02
2023-04-16T19:55:34.840Z,16.60
2023-04-16T19:58:06.082Z,10.73
2023-04-16T20:00:33.004Z,11.82
2023-04-16T20:02:59.617Z,10.88
2023-04-16T20:05:26.736Z,13.07
2023-04-16T20:07:53.807Z,11.63
2023-04-16T20:10:20.440Z,11.10
2023-04-16T20:12:47.388Z,11.65
2023-04-16T20:15:14.023Z,11.93
2023-04-16T20:17:40.768Z,12.52
2023-04-16T20:20:10.337Z,11.65
2023-04-16T20:22:40.075Z,24.98
2023-04-16T20:25:07.589Z,13.18
2023-04-16T20:27:34.179Z,12.60
2023-04-16T20:30:01.346Z,13.15
2023-04-16T20:32:28.139Z,13.23
2023-04-16T20:34:55.732Z,13.10
2023-04-16T20:37:22.319Z,13.85
2023-04-16T20:39:50.300Z,13.63
2023-04-16T20:42:16.863Z,14.45
2023-04-16T20:44:50.347Z,13.10
2023-04-16T20:47:20.115Z,14.98
2023-04-16T20:49:46.739Z,13.95
2023-04-16T20:52:13.481Z,13.88
2023-04-16T20:54:40.058Z,14.10
2023-04-16T20:57:06.684Z,13.73
2023-04-16T20:59:33.185Z,13.98
2023-04-16T21:01:59.938Z,13.07
2023-04-16T21:04:26.653Z,12.48
2023-04-16T21:06:55.948Z,12.43
2023-04-16T21:09:22.867Z,13.07
2023-04-16T21:11:49.336Z,12.13
2023-04-16T21:14:16.269Z,12.82
2023-04-16T21:16:42.836Z,12.60
2023-04-16T21:19:09.627Z,13.13
2023-04-16T21:21:38.304Z,14.02
2023-04-16T21:24:04.917Z,13.60
2023-04-16T21:26:31.415Z,14.93
2023-04-16T21:28:57.946Z,13.52
2023-04-16T21:31:24.509Z,14.10
2023-04-16T21:33:51.090Z,12.93
2023-04-16T21:36:17.601Z,11.52
2023-04-16T21:38:44.140Z,13.45
2023-04-16T21:41:10.920Z,14.68
2023-04-16T21:43:37.415Z,14.57
2023-04-16T21:46:03.958Z,13.48
2023-04-16T21:48:30.462Z,13.13
2023-04-16T21:50:58.236Z,14.93
2023-04-16T21:53:25.546Z,25.00
2023-04-16T21:55:52.355Z,16.50
2023-04-16T21:58:18.859Z,17.42
2023-04-16T22:00:45.536Z,16.40
2023-04-16T22:03:12.525Z,14.70
2023-04-16T22:05:39.323Z,17.60
2023-04-16T22:08:23.591Z,17.00
2023-04-16T22:10:50.930Z,15.50
2023-04-16T22:13:18.000Z,16.58
2023-04-16T22:15:44.530Z,15.68
2023-04-16T22:18:11.548Z,16.13
2023-04-16T22:20:39.130Z,13.57
2023-04-16T22:23:08.076Z,16.65
2023-04-16T22:25:34.602Z,17.05
2023-04-16T22:28:01.720Z,15.63
2023-04-16T22:30:28.368Z,16.42
2023-04-16T22:32:55.299Z,20.02
2023-04-16T22:35:21.898Z,23.08
2023-04-16T22:37:48.384Z,19.50
2023-04-16T22:40:16.005Z,16.35
2023-04-16T22:42:42.678Z,17.35
2023-04-16T22:45:09.404Z,15.05
2023-04-16T22:47:36.061Z,15.85
2023-04-16T22:50:03.306Z,15.57
2023-04-16T22:52:29.941Z,15.88
2023-04-16T22:54:56.503Z,18.77
2023-04-16T22:57:25.703Z,17.05
2023-04-16T22:59:53.064Z,17.85
2023-04-16T23:02:20.809Z,16.50
2023-04-16T23:04:48.093Z,18.10
2023-04-16T23:07:14.941Z,16.83
2023-04-16T23:09:41.451Z,17.20
2023-04-16T23:12:08.291Z,17.63
2023-04-16T23:14:35.237Z,19.30
2023-04-16T23:17:02.010Z,16.88
2023-04-16T23:19:28.953Z,17.25
2023-04-16T23:21:55.531Z,17.38
2023-04-16T23:24:22.059Z,18.92
2023-04-16T23:26:48.726Z,17.20
2023-04-16T23:29:15.261Z,17.40
2023-04-16T23:31:41.792Z,15.57
2023-04-16T23:34:08.455Z,16.45
2023-04-16T23:36:34.991Z,17.30
2023-04-16T23:39:01.460Z,16.63
2023-04-16T23:41:27.984Z,16.10
2023-04-16T23:43:54.574Z,17.92
2023-04-16T23:46:21.267Z,16.58
2023-04-16T23:48:47.787Z,16.73
2023-04-16T23:51:14.267Z,18.52
2023-04-16T23:53:41.071Z,19.55
2023-04-16T23:56:07.966Z,17.95
2023-04-16T23:58:34.492Z,17.77
